Time;durP1;ratioP1;P1;durP2;ratioP2;P2;SDS_P1;SDS_P2;PMS_P1;PMS_P2;Temp;Humidity;BMP_temperature;BMP_pressure;BME280_temperature;BME280_humidity;BME280_pressure;Samples;Min_cycle;Max_cycle;Signal;HPM_P1;HPM_P2
2022/07/25 00:00:28;;;;;;;8.88;4.97;;;13.10;99.90;;;;;;4919510;29;20105;-68
2022/07/25 00:02:57;;;;;;;5.47;4.93;;;13.20;99.90;;;;;;4936511;29;20054;-69
2022/07/25 00:05:24;;;;;;;7.15;5.18;;;13.40;99.90;;;;;;4918819;29;20139;-69
2022/07/25 00:07:52;;;;;;;6.90;5.30;;;13.40;99.90;;;;;;4919373;29;20047;-71
2022/07/25 00:10:19;;;;;;;6.35;4.43;;;13.30;99.90;;;;;;4919364;29;20035;-71
2022/07/25 00:12:47;;;;;;;6.20;4.60;;;13.30;99.90;;;;;;4936456;29;20484;-71
2022/07/25 00:15:14;;;;;;;6.80;4.63;;;13.40;99.90;;;;;;4936285;29;20035;-71
2022/07/25 00:17:42;;;;;;;4.93;3.97;;;13.40;99.90;;;;;;4936325;29;20020;-71
2022/07/25 00:20:10;;;;;;;6.35;3.97;;;13.50;99.90;;;;;;4919318;29;20083;-71
2022/07/25 00:22:41;;;;;;;5.70;4.28;;;13.60;99.90;;;;;;4935948;29;20043;-71
2022/07/25 00:25:08;;;;;;;7.28;4.80;;;13.70;99.90;;;;;;4903590;29;20118;-70
2022/07/25 00:27:36;;;;;;;5.75;4.22;;;13.70;99.90;;;;;;4936057;29;20539;-71
2022/07/25 00:30:05;;;;;;;5.22;4.03;;;13.80;99.90;;;;;;4936193;29;20106;-70
2022/07/25 00:32:32;;;;;;;6.38;4.82;;;13.90;99.90;;;;;;4888272;29;20040;-68
2022/07/25 00:35:00;;;;;;;6.53;4.78;;;14.00;99.90;;;;;;4936104;29;20028;-71
2022/07/25 00:37:27;;;;;;;6.75;5.28;;;14.20;99.90;;;;;;4919031;29;20020;-71
2022/07/25 00:39:57;;;;;;;5.40;4.90;;;14.20;99.90;;;;;;4935999;29;20031;-71
2022/07/25 00:42:25;;;;;;;7.72;5.50;;;14.30;99.90;;;;;;4918711;29;20024;-72
2022/07/25 00:44:52;;;;;;;6.65;5.38;;;14.30;99.90;;;;;;4919125;29;20036;-72
2022/07/25 00:47:20;;;;;;;7.47;5.50;;;14.30;99.90;;;;;;4936510;29;20032;-72
2022/07/25 00:49:47;;;;;;;11.82;5.95;;;14.40;99.90;;;;;;4918806;29;20023;-73
2022/07/25 00:52:14;;;;;;;9.00;6.22;;;14.40;99.90;;;;;;4936505;29;20027;-73
2022/07/25 00:54:42;;;;;;;8.02;6.78;;;14.60;99.90;;;;;;4918604;29;20028;-73
2022/07/25 00:57:09;;;;;;;9.30;6.55;;;14.40;99.90;;;;;;4936353;29;20043;-73
2022/07/25 00:59:37;;;;;;;9.60;6.68;;;14.60;99.90;;;;;;4936046;29;20028;-73
2022/07/25 01:02:04;;;;;;;8.52;6.72;;;14.70;99.90;;;;;;4936068;29;20132;-73
2022/07/25 01:04:31;;;;;;;8.45;5.95;;;14.70;99.90;;;;;;4935959;29;20027;-72
2022/07/25 01:07:00;;;;;;;10.30;6.00;;;14.80;99.90;;;;;;4918702;29;20111;-73
2022/07/25 01:09:27;;;;;;;8.73;5.25;;;15.00;99.90;;;;;;4935793;29;20511;-72
2022/07/25 01:11:55;;;;;;;9.00;5.65;;;15.00;99.90;;;;;;4918555;29;20035;-72
2022/07/25 01:14:22;;;;;;;6.50;5.07;;;15.10;99.90;;;;;;4935527;29;20067;-72
2022/07/25 01:16:50;;;;;;;8.32;5.05;;;15.20;99.90;;;;;;4936957;29;20019;-72
2022/07/25 01:19:17;;;;;;;6.65;5.25;;;15.40;99.90;;;;;;4922313;29;20028;-71
2022/07/25 01:21:44;;;;;;;7.57;4.85;;;15.50;99.90;;;;;;4939641;29;20019;-72
2022/07/25 01:24:12;;;;;;;6.80;3.78;;;15.60;99.90;;;;;;4939296;29;20047;-73
2022/07/25 01:26:39;;;;;;;7.80;3.47;;;15.70;99.90;;;;;;4922499;29;20034;-69
2022/07/25 01:29:07;;;;;;;4.72;3.42;;;15.70;99.90;;;;;;4922192;29;20028;-72
2022/07/25 01:31:34;;;;;;;5.13;3.60;;;15.70;99.90;;;;;;4922122;29;20126;-70
2022/07/25 01:34:01;;;;;;;4.55;2.95;;;15.90;99.90;;;;;;4939277;29;20083;-73
2022/07/25 01:36:29;;;;;;;4.35;3.60;;;15.80;99.90;;;;;;4939515;29;20071;-73
2022/07/25 01:38:56;;;;;;;5.00;2.90;;;15.90;99.90;;;;;;4939237;29;20103;-71
2022/07/25 01:41:23;;;;;;;4.88;3.13;;;16.00;99.90;;;;;;4922158;29;20028;-73
2022/07/25 01:43:51;;;;;;;5.22;3.08;;;16.20;99.90;;;;;;4939279;29;20056;-73
2022/07/25 01:46:18;;;;;;;4.85;3.13;;;16.40;99.90;;;;;;4939167;29;20075;-72
2022/07/25 01:48:45;;;;;;;6.53;3.22;;;16.40;99.90;;;;;;4922020;29;20035;-73
2022/07/25 01:51:14;;;;;;;4.35;3.05;;;16.40;99.90;;;;;;4938944;29;20118;-73
2022/07/25 01:53:42;;;;;;;3.63;2.80;;;16.50;99.90;;;;;;4938946;29;20107;-72
2022/07/25 01:56:10;;;;;;;4.60;3.13;;;16.70;99.90;;;;;;4939274;29;20043;-73
2022/07/25 01:58:38;;;;;;;3.97;3.15;;;16.70;99.90;;;;;;4939248;29;20027;-73
2022/07/25 02:01:05;;;;;;;4.50;2.88;;;16.80;99.90;;;;;;4921573;29;20151;-73
2022/07/25 02:03:32;;;;;;;5.35;3.20;;;16.70;99.90;;;;;;4921716;29;20023;-73
2022/07/25 02:06:03;;;;;;;6.40;3.00;;;16.90;99.90;;;;;;4921440;29;20023;-73
2022/07/25 02:08:31;;;;;;;4.13;2.95;;;17.00;99.90;;;;;;4938804;29;20019;-72
2022/07/25 02:10:59;;;;;;;5.60;2.72;;;17.00;99.90;;;;;;4938573;29;20035;-72
2022/07/25 02:13:27;;;;;;;3.28;2.85;;;17.10;99.90;;;;;;4921215;29;20111;-73
2022/07/25 02:15:54;;;;;;;3.75;2.80;;;17.00;99.90;;;;;;4921276;29;20032;-73
2022/07/25 02:18:21;;;;;;;4.40;2.70;;;17.10;99.90;;;;;;4938351;29;20070;-73
2022/07/25 02:20:49;;;;;;;3.88;2.55;;;17.30;99.90;;;;;;4938782;29;20051;-73
2022/07/25 02:23:16;;;;;;;2.65;1.92;;;17.20;99.90;;;;;;4920975;29;20048;-73
2022/07/25 02:25:43;;;;;;;6.20;3.10;;;17.10;99.90;;;;;;4938292;29;20087;-73
2022/07/25 02:28:11;;;;;;;4.70;3.38;;;17.00;99.90;;;;;;4920351;29;20031;-73
2022/07/25 02:30:38;;;;;;;4.95;3.53;;;17.10;99.90;;;;;;4920912;29;20027;-73
2022/07/25 02:33:06;;;;;;;2.97;1.30;;;17.20;99.90;;;;;;4921198;29;20075;-73
2022/07/25 02:35:33;;;;;;;1.83;0.90;;;17.40;99.90;;;;;;4938157;29;20020;-74
2022/07/25 02:38:01;;;;;;;1.65;0.80;;;17.60;99.90;;;;;;4921109;29;20030;-73
2022/07/25 02:40:28;;;;;;;1.83;0.50;;;17.70;99.90;;;;;;4920966;29;20412;-74
2022/07/25 02:42:55;;;;;;;1.50;0.60;;;17.80;99.90;;;;;;4938125;29;20051;-73
2022/07/25 02:45:23;;;;;;;2.70;0.63;;;17.90;99.90;;;;;;4920906;29;20078;-73
2022/07/25 02:47:50;;;;;;;1.90;0.60;;;17.60;99.90;;;;;;4921144;29;20032;-73
2022/07/25 02:50:17;;;;;;;1.70;0.63;;;17.80;99.90;;;;;;4921041;29;20555;-73
2022/07/25 02:52:45;;;;;;;1.58;0.77;;;18.10;99.90;;;;;;4920779;29;20031;-73
2022/07/25 02:55:12;;;;;;;4.07;0.80;;;18.40;99.90;;;;;;4937971;29;20118;-73
2022/07/25 02:57:39;;;;;;;0.90;0.40;;;18.50;99.90;;;;;;4920570;29;20031;-73
2022/07/25 03:00:08;;;;;;;2.40;0.85;;;18.10;99.90;;;;;;4920736;29;20034;-73
2022/07/25 03:02:35;;;;;;;1.45;0.88;;;18.20;99.90;;;;;;4937787;29;20030;-73
2022/07/25 03:05:07;;;;;;;4.13;1.10;;;18.50;99.90;;;;;;4937793;29;20337;-73
2022/07/25 03:07:34;;;;;;;3.17;1.10;;;18.30;99.90;;;;;;4920615;29;20028;-73
2022/07/25 03:10:03;;;;;;;4.30;1.63;;;18.30;99.90;;;;;;4937764;29;20036;-73
2022/07/25 03:12:31;;;;;;;4.45;1.77;;;18.60;99.90;;;;;;4937837;29;20046;-73
2022/07/25 03:15:00;;;;;;;5.50;1.80;;;18.60;99.90;;;;;;4920453;29;20028;-74
2022/07/25 03:17:28;;;;;;;6.15;1.90;;;18.60;99.90;;;;;;4937598;29;20095;-73
2022/07/25 03:19:56;;;;;;;6.45;1.90;;;18.30;99.90;;;;;;4937699;29;20477;-74
2022/07/25 03:22:24;;;;;;;6.55;1.98;;;18.10;99.90;;;;;;4937113;29;20071;-73
2022/07/25 03:24:52;;;;;;;7.57;1.70;;;17.90;99.90;;;;;;4920602;29;20027;-74
2022/07/25 03:27:20;;;;;;;6.35;1.80;;;17.80;99.90;;;;;;4920431;29;20070;-73
2022/07/25 03:29:47;;;;;;;5.90;1.63;;;17.80;99.90;;;;;;4920337;29;20050;-74
2022/07/25 03:32:15;;;;;;;4.25;1.27;;;18.00;99.90;;;;;;4937575;29;20464;-73
2022/07/25 03:34:42;;;;;;;4.88;1.17;;;18.20;99.90;;;;;;4919969;29;20030;-73
2022/07/25 03:37:10;;;;;;;6.68;2.30;;;18.40;99.90;;;;;;4937671;29;20106;-73
2022/07/25 03:39:37;;;;;;;5.60;1.23;;;18.50;99.90;;;;;;4919560;29;20082;-73
2022/07/25 03:42:05;;;;;;;3.95;0.80;;;18.50;99.90;;;;;;4919506;29;20020;-72
2022/07/25 03:44:32;;;;;;;2.80;1.17;;;18.10;99.90;;;;;;4919689;29;20113;-72
2022/07/25 03:46:59;;;;;;;4.38;0.90;;;18.20;99.90;;;;;;4936965;29;20027;-73
2022/07/25 03:49:27;;;;;;;6.18;0.90;;;18.20;99.90;;;;;;4936932;29;20028;-73
2022/07/25 03:51:54;;;;;;;7.75;1.52;;;18.10;99.90;;;;;;4919657;29;20405;-73
2022/07/25 03:54:21;;;;;;;7.63;1.10;;;18.30;99.90;;;;;;4936716;29;20037;-73
2022/07/25 03:56:50;;;;;;;2.03;0.70;;;18.50;99.90;;;;;;4919621;29;20453;-74
2022/07/25 03:59:19;;;;;;;5.18;0.93;;;18.50;99.90;;;;;;4936568;29;20480;-74
2022/07/25 04:01:49;;;;;;;4.65;1.23;;;18.70;99.90;;;;;;4937048;29;20034;-74
2022/07/25 04:04:18;;;;;;;5.63;0.80;;;18.90;99.90;;;;;;4936581;29;20055;-73
2022/07/25 04:06:48;;;;;;;3.08;0.90;;;18.90;99.90;;;;;;4919717;29;20496;-74
2022/07/25 04:09:16;;;;;;;6.15;1.00;;;18.90;99.90;;;;;;4936764;29;20055;-74
2022/07/25 04:11:43;;;;;;;6.28;1.55;;;18.90;99.90;;;;;;4919460;29;20114;-75
2022/07/25 04:14:10;;;;;;;5.25;0.70;;;18.90;99.90;;;;;;4936780;29;20086;-73
2022/07/25 04:16:38;;;;;;;4.72;0.60;;;19.10;99.90;;;;;;4936421;29;20028;-76
2022/07/25 04:19:06;;;;;;;3.92;0.85;;;19.10;99.90;;;;;;4919153;29;20028;-74
2022/07/25 04:21:34;;;;;;;3.63;0.68;;;19.30;99.90;;;;;;4919037;29;20492;-74
2022/07/25 04:24:02;;;;;;;2.45;0.73;;;19.30;99.90;;;;;;4900203;29;20521;-72
2022/07/25 04:26:29;;;;;;;3.78;0.75;;;18.90;99.90;;;;;;4917706;29;20377;-74
2022/07/25 04:28:57;;;;;;;4.85;1.13;;;18.50;99.90;;;;;;4917338;29;20096;-73
2022/07/25 04:31:25;;;;;;;6.25;1.00;;;18.30;99.90;;;;;;4917322;29;20031;-73
2022/07/25 04:33:53;;;;;;;4.50;0.93;;;18.20;99.90;;;;;;4900250;29;20087;-74
2022/07/25 04:36:20;;;;;;;4.20;1.05;;;18.00;99.90;;;;;;4916090;29;20020;-73
2022/07/25 04:38:47;;;;;;;2.72;0.70;;;18.30;99.90;;;;;;4917889;29;20024;-74
2022/07/25 04:41:15;;;;;;;3.63;0.82;;;18.60;99.90;;;;;;4915929;29;20038;-74
2022/07/25 04:43:42;;;;;;;4.50;0.65;;;18.70;99.90;;;;;;4917105;29;20103;-74
2022/07/25 04:46:09;;;;;;;3.58;0.77;;;18.90;99.90;;;;;;4915791;29;20028;-74
2022/07/25 04:48:37;;;;;;;4.93;0.88;;;19.00;99.90;;;;;;4917045;29;20497;-74
2022/07/25 04:51:04;;;;;;;3.20;0.80;;;19.00;99.90;;;;;;4915405;29;20025;-74
2022/07/25 04:53:31;;;;;;;5.82;0.70;;;18.90;99.90;;;;;;4915790;29;20481;-74
2022/07/25 04:55:59;;;;;;;2.30;0.63;;;18.70;99.90;;;;;;4915607;29;20024;-75
2022/07/25 04:58:26;;;;;;;2.15;0.63;;;18.60;99.90;;;;;;4917269;29;20071;-74
2022/07/25 05:00:54;;;;;;;4.95;1.00;;;18.50;99.90;;;;;;4915510;29;20028;-74
2022/07/25 05:03:21;;;;;;;5.43;1.30;;;18.50;99.90;;;;;;4915364;29;20028;-74
2022/07/25 05:05:49;;;;;;;3.53;0.60;;;18.30;99.90;;;;;;4916861;29;20028;-73
2022/07/25 05:08:16;;;;;;;4.15;0.88;;;18.00;99.90;;;;;;4916955;29;20020;-73
2022/07/25 05:10:43;;;;;;;2.85;1.05;;;17.70;99.90;;;;;;4915489;29;20032;-73
2022/07/25 05:13:11;;;;;;;3.40;0.82;;;17.40;99.90;;;;;;4915750;29;20108;-73
2022/07/25 05:15:38;;;;;;;5.28;0.82;;;17.20;99.90;;;;;;4915226;29;20035;-73
2022/07/25 05:18:05;;;;;;;5.05;0.95;;;17.20;99.90;;;;;;4916886;29;20039;-73
2022/07/25 05:20:33;;;;;;;3.47;0.93;;;17.10;99.90;;;;;;4915639;29;20059;-74
2022/07/25 05:23:00;;;;;;;4.80;0.82;;;17.10;99.90;;;;;;4925189;29;20536;-74
2022/07/25 05:25:28;;;;;;;4.40;1.27;;;17.10;99.90;;;;;;4936512;29;20119;-74
2022/07/25 05:27:57;;;;;;;6.88;1.80;;;16.90;99.90;;;;;;4935909;29;20062;-74
2022/07/25 05:30:25;;;;;;;6.43;1.20;;;16.90;99.90;;;;;;4935531;29;20415;-74
2022/07/25 05:32:52;;;;;;;5.63;1.45;;;16.80;99.90;;;;;;4918564;29;20397;-74
2022/07/25 05:35:19;;;;;;;5.00;1.10;;;16.70;99.90;;;;;;4918369;29;20087;-73
2022/07/25 05:37:47;;;;;;;4.72;1.48;;;16.70;99.90;;;;;;4935699;29;20058;-73
2022/07/25 05:40:14;;;;;;;6.95;1.40;;;16.60;99.90;;;;;;4935786;29;20023;-73
2022/07/25 05:42:41;;;;;;;5.28;1.50;;;16.70;99.90;;;;;;4935645;29;20024;-72
2022/07/25 05:45:09;;;;;;;4.78;1.00;;;16.60;99.90;;;;;;4918363;29;20031;-73
2022/07/25 05:47:36;;;;;;;6.72;0.98;;;16.70;99.90;;;;;;4918430;29;20031;-73
2022/07/25 05:50:04;;;;;;;5.55;1.23;;;16.60;99.90;;;;;;4935581;29;20046;-72
2022/07/25 05:52:31;;;;;;;7.38;1.13;;;16.60;99.90;;;;;;4935376;29;20035;-73
2022/07/25 05:54:59;;;;;;;5.53;1.10;;;16.50;99.90;;;;;;4918249;29;20035;-73
2022/07/25 05:57:26;;;;;;;4.65;0.80;;;16.40;99.90;;;;;;4918089;29;20067;-72
2022/07/25 05:59:53;;;;;;;3.53;0.73;;;16.30;99.90;;;;;;4918014;29;20023;-72
2022/07/25 06:02:21;;;;;;;3.28;0.60;;;16.30;99.90;;;;;;4935731;29;20408;-73
2022/07/25 06:04:48;;;;;;;2.15;0.57;;;16.30;99.90;;;;;;4920700;29;20551;-73
2022/07/25 06:07:15;;;;;;;4.78;0.70;;;16.30;99.90;;;;;;4938740;29;20043;-73
2022/07/25 06:09:43;;;;;;;2.97;0.50;;;16.30;99.90;;;;;;4921883;29;20139;-73
2022/07/25 06:12:10;;;;;;;4.32;0.73;;;16.30;99.90;;;;;;4939205;29;20031;-73
2022/07/25 06:14:37;;;;;;;1.30;0.70;;;16.30;99.90;;;;;;4938698;29;20042;-73
2022/07/25 06:17:05;;;;;;;2.83;0.65;;;16.20;99.90;;;;;;4921567;29;20070;-73
2022/07/25 06:19:32;;;;;;;2.33;0.55;;;16.20;99.90;;;;;;4921423;29;20051;-73
2022/07/25 06:22:00;;;;;;;3.30;0.82;;;16.10;99.90;;;;;;4905603;29;20036;-73
2022/07/25 06:24:27;;;;;;;5.93;1.67;;;15.90;99.90;;;;;;4938602;29;20548;-73
2022/07/25 06:26:54;;;;;;;2.88;0.70;;;15.80;99.90;;;;;;4938978;29;20111;-75
2022/07/25 06:29:22;;;;;;;4.30;0.75;;;15.70;99.90;;;;;;4921805;29;20031;-75
2022/07/25 06:31:49;;;;;;;3.40;0.88;;;15.60;99.90;;;;;;4938680;29;20047;-75
2022/07/25 06:34:16;;;;;;;2.85;0.77;;;15.50;99.90;;;;;;4921307;29;20027;-75
2022/07/25 06:36:44;;;;;;;3.72;0.68;;;15.40;99.90;;;;;;4938462;29;20024;-74
2022/07/25 06:39:11;;;;;;;3.05;0.98;;;15.30;99.90;;;;;;4938533;29;20031;-73
2022/07/25 06:41:38;;;;;;;3.83;1.10;;;15.20;99.90;;;;;;4938383;29;20390;-73
2022/07/25 06:44:06;;;;;;;3.22;0.70;;;15.10;99.90;;;;;;4920699;29;20494;-73
2022/07/25 06:46:33;;;;;;;3.70;0.80;;;15.20;99.90;;;;;;4938490;29;20027;-73
2022/07/25 06:49:00;;;;;;;3.97;0.70;;;15.10;99.90;;;;;;4921061;29;20370;-73
2022/07/25 06:51:28;;;;;;;2.33;0.90;;;15.00;99.90;;;;;;4921112;29;20023;-73
2022/07/25 06:53:55;;;;;;;1.65;0.65;;;14.90;99.90;;;;;;4938232;29;20098;-74
2022/07/25 06:56:23;;;;;;;4.53;1.10;;;14.80;99.90;;;;;;4938509;29;20472;-75
2022/07/25 06:58:52;;;;;;;4.53;0.75;;;14.70;99.90;;;;;;4938179;29;20023;-74
2022/07/25 07:01:19;;;;;;;4.03;0.90;;;14.60;99.90;;;;;;4920825;29;20027;-74
2022/07/25 07:03:47;;;;;;;2.65;0.70;;;14.60;99.90;;;;;;4937984;29;20146;-73
2022/07/25 07:06:14;;;;;;;3.80;1.05;;;14.50;99.90;;;;;;4920698;29;20392;-74
2022/07/25 07:08:42;;;;;;;5.55;1.20;;;14.40;99.90;;;;;;4938070;29;20606;-73
2022/07/25 07:11:09;;;;;;;5.50;1.20;;;14.40;99.90;;;;;;4938066;29;20083;-73
2022/07/25 07:13:36;;;;;;;5.97;1.98;;;14.40;99.90;;;;;;4937759;29;20031;-73
2022/07/25 07:16:04;;;;;;;5.72;1.27;;;14.30;99.90;;;;;;4920252;29;20020;-74
2022/07/25 07:18:31;;;;;;;5.03;1.77;;;14.30;99.90;;;;;;4920597;29;20034;-73
2022/07/25 07:20:59;;;;;;;4.00;1.13;;;14.30;99.90;;;;;;4937554;29;20389;-73
2022/07/25 07:23:26;;;;;;;4.43;1.25;;;14.30;99.90;;;;;;4920246;29;20052;-73
2022/07/25 07:25:53;;;;;;;4.75;1.05;;;14.30;99.90;;;;;;4937874;29;20086;-73
2022/07/25 07:28:21;;;;;;;9.27;4.25;;;14.20;99.90;;;;;;4937042;29;20019;-71
2022/07/25 07:30:48;;;;;;;4.40;1.52;;;14.30;99.90;;;;;;4937220;29;20027;-70
2022/07/25 07:33:15;;;;;;;5.70;1.60;;;14.20;99.90;;;;;;4937157;29;20031;-71
2022/07/25 07:35:46;;;;;;;5.00;1.67;;;14.20;99.90;;;;;;4920025;29;20440;-71
2022/07/25 07:38:14;;;;;;;7.85;1.80;;;14.10;99.90;;;;;;4937076;29;20019;-72
2022/07/25 07:40:41;;;;;;;8.82;1.80;;;14.10;99.90;;;;;;4937092;29;20027;-72
2022/07/25 07:43:08;;;;;;;5.53;1.55;;;14.00;99.90;;;;;;4919915;29;20465;-73
2022/07/25 07:45:36;;;;;;;7.15;1.60;;;14.00;99.90;;;;;;4936956;29;20547;-72
2022/07/25 07:48:03;;;;;;;7.78;2.33;;;14.00;99.90;;;;;;4937050;29;20035;-72
2022/07/25 07:50:30;;;;;;;4.95;1.70;;;13.90;99.90;;;;;;4937019;29;20040;-71
2022/07/25 07:53:01;;;;;;;9.50;2.58;;;13.90;99.90;;;;;;4936704;29;20028;-71
2022/07/25 07:55:44;;;;;;;9.65;2.55;;;13.80;99.90;;;;;;4936851;29;20083;-71
2022/07/25 07:58:16;;;;;;;7.55;2.03;;;13.80;99.90;;;;;;4936775;29;20023;-72
2022/07/25 08:00:45;;;;;;;8.20;1.83;;;13.70;99.90;;;;;;4919622;29;20035;-70
2022/07/25 08:03:16;;;;;;;4.70;1.90;;;13.70;99.90;;;;;;4936722;29;20031;-70
2022/07/25 08:05:43;;;;;;;;;;;13.70;99.90;;;;;;4919917;29;20038;-72
2022/07/25 08:08:14;;;;;;;5.53;2.53;;;13.70;99.90;;;;;;4919258;29;19907;-69
2022/07/25 08:10:47;;;;;;;7.63;2.78;;;13.60;99.90;;;;;;4919518;29;20032;-70
2022/07/25 08:13:19;;;;;;;9.52;2.08;;;13.60;99.90;;;;;;4919910;29;20052;-69
2022/07/25 08:15:49;;;;;;;6.55;1.90;;;13.60;99.90;;;;;;4919537;29;20059;-70
2022/07/25 08:18:16;;;;;;;9.65;2.42;;;13.50;99.90;;;;;;4936993;29;20025;-69
2022/07/25 08:20:44;;;;;;;6.43;2.10;;;13.50;99.90;;;;;;4936374;29;20425;-69
2022/07/25 08:23:13;;;;;;;11.35;2.67;;;13.40;99.90;;;;;;4918906;29;20062;-68
2022/07/25 08:25:40;;;;;;;9.30;3.10;;;13.40;99.90;;;;;;4903173;29;20063;-67
2022/07/25 08:28:08;;;;;;;10.68;3.50;;;13.40;99.90;;;;;;4918803;29;20408;-68
2022/07/25 08:30:36;;;;;;;11.73;4.97;;;13.40;99.90;;;;;;4919092;29;20484;-68
2022/07/25 08:33:12;;;;;;;13.23;6.43;;;13.40;99.90;;;;;;4919123;29;20032;-68
2022/07/25 08:35:40;;;;;;;13.68;7.45;;;13.40;99.90;;;;;;4904209;29;20031;-69
2022/07/25 08:38:10;;;;;;;16.40;6.32;;;13.40;99.90;;;;;;4936635;29;20483;-69
2022/07/25 08:40:37;;;;;;;14.02;5.68;;;13.30;99.90;;;;;;4936015;29;20155;-68
2022/07/25 08:43:05;;;;;;;12.75;6.18;;;13.40;99.90;;;;;;4918953;29;20023;-68
2022/07/25 08:45:33;;;;;;;17.60;6.63;;;13.30;99.90;;;;;;4918929;29;20031;-67
2022/07/25 08:48:00;;;;;;;18.10;6.57;;;13.30;99.90;;;;;;4936321;29;20031;-68
2022/07/25 08:50:29;;;;;;;14.90;5.10;;;13.30;99.90;;;;;;4918811;29;20099;-68
2022/07/25 08:52:56;;;;;;;15.32;5.93;;;13.30;99.90;;;;;;4918688;29;20051;-68
2022/07/25 08:55:24;;;;;;;13.68;4.93;;;13.30;99.90;;;;;;4935837;29;20036;-67
2022/07/25 08:57:53;;;;;;;10.50;4.18;;;13.30;99.90;;;;;;4918648;29;20114;-69
2022/07/25 09:00:23;;;;;;;15.63;5.10;;;13.20;99.90;;;;;;4918710;29;20027;-68
2022/07/25 09:02:55;;;;;;;11.95;4.00;;;13.20;99.90;;;;;;4918632;29;20032;-67
2022/07/25 09:05:24;;;;;;;12.52;3.70;;;13.20;99.90;;;;;;4918775;29;20047;-68
2022/07/25 09:07:53;;;;;;;17.30;4.93;;;13.10;99.90;;;;;;4936135;29;20059;-68
2022/07/25 09:10:22;;;;;;;17.73;4.93;;;13.10;99.90;;;;;;4935902;29;20400;-67
2022/07/25 09:12:55;;;;;;;15.43;4.47;;;13.10;99.90;;;;;;4936003;29;20079;-67
2022/07/25 09:15:31;;;;;;;12.65;4.25;;;13.10;99.90;;;;;;4935701;29;20055;-66
2022/07/25 09:18:01;;;;;;;14.35;4.45;;;13.10;99.90;;;;;;4918752;29;20083;-67
2022/07/25 09:20:48;;;;;;;15.57;4.80;;;13.00;99.90;;;;;;4918637;29;20114;-68
2022/07/25 09:23:37;;;;;;;12.80;4.22;;;13.00;99.90;;;;;;4935603;29;20047;-67
2022/07/25 09:26:07;;;;;;;15.43;4.80;;;13.00;99.90;;;;;;4918817;29;20114;-68
2022/07/25 09:28:41;;;;;;;16.35;4.65;;;13.00;99.90;;;;;;4935830;29;20035;-67
2022/07/25 09:31:09;;;;;;;14.00;4.50;;;13.00;99.90;;;;;;4935668;29;20476;-68
2022/07/25 09:33:46;;;;;;;11.20;3.90;;;12.90;99.90;;;;;;4935450;29;20437;-68
2022/07/25 09:36:14;;;;;;;14.18;4.68;;;12.90;99.90;;;;;;4918381;29;20023;-67
2022/07/25 09:38:55;;;;;;;13.70;5.28;;;12.90;99.90;;;;;;4936558;29;20385;-68
2022/07/25 09:41:33;;;;;;;13.25;5.35;;;12.90;99.90;;;;;;4939267;29;20023;-67
2022/07/25 09:44:00;;;;;;;11.70;5.40;;;12.90;99.90;;;;;;4939254;29;20028;-67
2022/07/25 09:46:31;;;;;;;18.10;5.90;;;12.90;99.90;;;;;;4921860;29;20035;-66
2022/07/25 09:49:00;;;;;;;9.75;4.10;;;12.90;99.90;;;;;;4921893;29;20024;-67
2022/07/25 09:51:28;;;;;;;13.43;3.92;;;12.90;99.90;;;;;;4938973;29;20091;-67
2022/07/25 09:53:55;;;;;;;9.20;3.90;;;12.90;99.90;;;;;;4938811;29;20046;-67
2022/07/25 09:56:23;;;;;;;12.32;4.55;;;12.90;99.90;;;;;;4938952;29;20027;-67
2022/07/25 09:58:51;;;;;;;14.50;4.38;;;12.80;99.90;;;;;;4921724;29;20027;-67
2022/07/25 10:01:27;;;;;;;10.95;4.22;;;12.80;99.90;;;;;;4939122;29;20443;-68
2022/07/25 10:04:22;;;;;;;12.88;4.03;;;12.80;99.90;;;;;;4938837;29;20488;-68
2022/07/25 10:07:13;;;;;;;10.88;4.30;;;12.70;99.90;;;;;;4939059;29;20476;-69
2022/07/25 10:09:53;;;;;;;8.55;3.90;;;12.80;99.90;;;;;;4932105;29;20107;-69
2022/07/25 10:12:22;;;;;;;9.05;3.85;;;12.70;99.90;;;;;;4938709;29;20032;-69
2022/07/25 10:15:11;;;;;;;12.57;3.95;;;12.60;99.90;;;;;;4921370;29;20031;-69
2022/07/25 10:17:40;;;;;;;10.50;3.83;;;12.60;99.90;;;;;;4938795;29;20436;-68
2022/07/25 10:20:09;;;;;;;9.73;4.03;;;12.60;99.90;;;;;;4921361;29;20034;-69
2022/07/25 10:22:48;;;;;;;9.30;3.95;;;12.60;99.90;;;;;;4938205;29;20067;-69
2022/07/25 10:25:18;;;;;;;11.50;3.70;;;12.50;99.90;;;;;;4938476;29;20488;-69
2022/07/25 10:27:57;;;;;;;15.07;4.65;;;12.50;99.90;;;;;;4905678;29;20036;-70
2022/07/25 10:30:39;;;;;;;8.60;4.45;;;12.50;99.90;;;;;;4938179;29;20107;-69
2022/07/25 10:33:20;;;;;;;9.18;4.35;;;12.50;99.90;;;;;;4938310;29;20024;-70
2022/07/25 10:35:47;;;;;;;12.10;4.78;;;12.40;99.90;;;;;;4921098;29;20032;-70
2022/07/25 10:38:24;;;;;;;12.70;4.75;;;12.40;99.90;;;;;;4905583;29;20039;-70
2022/07/25 10:40:52;;;;;;;9.88;3.60;;;12.40;99.90;;;;;;4938230;29;20030;-71
2022/07/25 10:43:21;;;;;;;9.45;3.90;;;12.30;99.90;;;;;;4938217;29;20480;-71
2022/07/25 10:45:51;;;;;;;11.00;3.43;;;12.30;99.90;;;;;;4921322;29;20122;-72
2022/07/25 10:48:24;;;;;;;7.85;3.60;;;12.30;99.90;;;;;;4921109;29;20031;-71
2022/07/25 10:51:00;;;;;;;8.00;3.45;;;12.20;99.90;;;;;;4937533;29;20024;-70
2022/07/25 10:53:46;;;;;;;8.98;3.67;;;12.20;99.90;;;;;;4938226;29;20028;-70
2022/07/25 10:56:19;;;;;;;10.82;3.83;;;12.10;99.90;;;;;;4938030;29;20092;-70
2022/07/25 10:58:51;;;;;;;8.20;3.30;;;12.10;99.90;;;;;;4937980;29;20107;-71
2022/07/25 11:01:26;;;;;;;7.47;3.75;;;12.10;99.90;;;;;;4920704;29;20023;-70
2022/07/25 11:03:59;;;;;;;12.13;4.18;;;12.10;99.90;;;;;;4937759;29;20150;-70
2022/07/25 11:06:37;;;;;;;8.30;3.45;;;12.10;99.90;;;;;;4920723;29;20511;-70
2022/07/25 11:09:17;;;;;;;5.78;3.13;;;12.00;99.90;;;;;;4921041;29;20110;-69
2022/07/25 11:11:47;;;;;;;9.05;4.32;;;12.00;99.90;;;;;;4938266;29;20511;-70
2022/07/25 11:14:22;;;;;;;8.37;3.40;;;12.00;99.90;;;;;;4920395;29;20042;-69
2022/07/25 11:16:52;;;;;;;7.22;3.40;;;11.90;99.90;;;;;;4937573;29;20016;-69
2022/07/25 11:19:22;;;;;;;7.70;3.10;;;11.90;99.90;;;;;;4937422;29;20472;-69
2022/07/25 11:22:03;;;;;;;7.03;3.83;;;11.90;99.90;;;;;;4937213;29;20031;-70
2022/07/25 11:24:41;;;;;;;5.00;3.30;;;11.90;99.90;;;;;;4920247;29;20044;-69
2022/07/25 11:27:11;;;;;;;7.38;3.47;;;11.80;99.90;;;;;;4920160;29;20544;-68
2022/07/25 11:29:39;;;;;;;7.97;4.05;;;11.80;99.90;;;;;;4920149;29;20042;-70
2022/07/25 11:32:09;;;;;;;6.88;3.63;;;11.80;99.90;;;;;;4920185;29;20123;-68
2022/07/25 11:34:44;;;;;;;7.90;3.30;;;11.80;99.90;;;;;;4937118;29;20053;-68
2022/07/25 11:37:13;;;;;;;7.15;3.55;;;11.80;99.90;;;;;;4937434;29;20531;-70
2022/07/25 11:39:43;;;;;;;7.55;3.30;;;11.70;99.90;;;;;;4920400;29;20028;-69
2022/07/25 11:42:16;;;;;;;7.00;3.35;;;11.70;99.90;;;;;;4937074;29;20071;-68
2022/07/25 11:44:53;;;;;;;7.57;3.67;;;11.70;99.90;;;;;;4919813;29;20031;-70
2022/07/25 11:47:27;;;;;;;5.82;3.70;;;11.70;99.90;;;;;;4904533;29;20082;-69
2022/07/25 11:49:57;;;;;;;6.53;3.90;;;11.70;99.90;;;;;;4937049;29;20540;-69
2022/07/25 11:52:34;;;;;;;6.43;3.17;;;11.60;99.90;;;;;;4937570;29;20499;-70
2022/07/25 11:55:05;;;;;;;7.35;3.92;;;11.60;99.90;;;;;;4937596;29;20345;-70
2022/07/25 11:57:35;;;;;;;7.35;4.00;;;11.60;99.90;;;;;;4936955;29;20049;-70
2022/07/25 12:00:29;;;;;;;6.80;3.53;;;11.60;99.90;;;;;;4919916;29;20051;-70
2022/07/25 12:03:10;;;;;;;7.63;3.40;;;11.60;99.90;;;;;;4936362;29;20056;-70
2022/07/25 12:05:38;;;;;;;9.05;3.78;;;11.60;99.90;;;;;;4919664;29;20050;-70
2022/07/25 12:08:15;;;;;;;8.75;3.50;;;11.50;99.90;;;;;;4919490;29;20032;-70
2022/07/25 12:10:46;;;;;;;8.73;4.22;;;11.50;99.90;;;;;;4936826;29;20111;-70
2022/07/25 12:13:24;;;;;;;6.35;3.80;;;11.50;99.90;;;;;;4936727;29;20024;-70
2022/07/25 12:15:52;;;;;;;6.35;3.83;;;11.50;99.90;;;;;;4936371;29;20027;-70
2022/07/25 12:18:21;;;;;;;6.43;3.42;;;11.40;99.90;;;;;;4919274;29;20039;-70
2022/07/25 12:20:48;;;;;;;6.90;3.42;;;11.40;99.90;;;;;;4936396;29;20023;-69
2022/07/25 12:23:16;;;;;;;9.43;4.40;;;11.40;99.90;;;;;;4936135;29;20075;-70
2022/07/25 12:25:50;;;;;;;7.88;3.80;;;11.40;99.90;;;;;;4936713;29;20063;-70
2022/07/25 12:28:17;;;;;;;5.85;3.70;;;11.30;99.90;;;;;;4919613;29;20111;-71
2022/07/25 12:30:46;;;;;;;6.90;4.25;;;11.40;99.90;;;;;;4919127;29;20094;-71
2022/07/25 12:33:14;;;;;;;5.45;4.07;;;11.30;99.90;;;;;;4919210;29;20028;-71
2022/07/25 12:35:43;;;;;;;10.68;4.72;;;11.30;99.90;;;;;;4919134;29;20083;-72
2022/07/25 12:38:11;;;;;;;7.45;4.05;;;11.30;99.90;;;;;;4936196;29;20075;-71
2022/07/25 12:40:38;;;;;;;6.88;4.00;;;11.30;99.90;;;;;;4935869;29;20173;-71
2022/07/25 12:43:06;;;;;;;8.20;4.18;;;11.20;99.90;;;;;;4936177;29;20433;-71
2022/07/25 12:45:33;;;;;;;7.10;3.90;;;11.20;99.90;;;;;;4919042;29;20034;-72
2022/07/25 12:48:01;;;;;;;8.93;4.70;;;11.20;99.90;;;;;;4919002;29;20027;-71
2022/07/25 12:50:28;;;;;;;7.22;4.40;;;11.20;99.90;;;;;;4918759;29;20115;-72
2022/07/25 12:52:55;;;;;;;6.30;4.20;;;11.20;99.90;;;;;;4918841;29;20032;-71
2022/07/25 12:55:23;;;;;;;5.25;3.47;;;11.10;99.90;;;;;;4935973;29;20059;-71